sensor_id;sensor_type;location;lat;lon;timestamp;pressure;altitude;pressure_sealevel;temperature;humidity
76260;BME280;65076;52.362;6.588;2023-04-03T00:01:21;103134.28;;;4.65;65.70
76260;BME280;65076;52.362;6.588;2023-04-03T00:03:50;103139.72;;;4.70;66.20
76260;BME280;65076;52.362;6.588;2023-04-03T00:06:18;103136.97;;;4.67;66.86
76260;BME280;65076;52.362;6.588;2023-04-03T00:08:47;103142.28;;;4.62;66.94
76260;BME280;65076;52.362;6.588;2023-04-03T00:11:15;103147.56;;;4.58;67.32
76260;BME280;65076;52.362;6.588;2023-04-03T00:13:44;103149.41;;;4.62;67.10
76260;BME280;65076;52.362;6.588;2023-04-03T00:16:12;103148.66;;;4.71;66.79
76260;BME280;65076;52.362;6.588;2023-04-03T00:18:40;103146.72;;;4.62;66.85
76260;BME280;65076;52.362;6.588;2023-04-03T00:21:12;103142.09;;;4.49;67.65
76260;BME280;65076;52.362;6.588;2023-04-03T00:23:41;103147.75;;;4.72;67.35
76260;BME280;65076;52.362;6.588;2023-04-03T00:26:08;103154.84;;;4.68;66.93
76260;BME280;65076;52.362;6.588;2023-04-03T00:28:36;103157.47;;;4.63;67.31
76260;BME280;65076;52.362;6.588;2023-04-03T00:31:04;103154.75;;;4.59;68.07
76260;BME280;65076;52.362;6.588;2023-04-03T00:33:32;103163.97;;;4.82;67.11
76260;BME280;65076;52.362;6.588;2023-04-03T00:36:05;103148.97;;;4.98;66.08
76260;BME280;65076;52.362;6.588;2023-04-03T00:38:36;103159.22;;;4.58;67.92
76260;BME280;65076;52.362;6.588;2023-04-03T00:41:04;103161.00;;;4.59;68.13
76260;BME280;65076;52.362;6.588;2023-04-03T00:43:32;103162.16;;;4.80;67.45
76260;BME280;65076;52.362;6.588;2023-04-03T00:46:00;103159.50;;;4.80;67.17
76260;BME280;65076;52.362;6.588;2023-04-03T00:48:31;103154.72;;;4.57;68.35
76260;BME280;65076;52.362;6.588;2023-04-03T00:51:03;103166.38;;;4.59;68.63
76260;BME280;65076;52.362;6.588;2023-04-03T00:53:37;103161.16;;;4.72;68.41
76260;BME280;65076;52.362;6.588;2023-04-03T00:56:11;103158.31;;;4.61;68.08
76260;BME280;65076;52.362;6.588;2023-04-03T00:58:44;103163.66;;;4.58;68.49
76260;BME280;65076;52.362;6.588;2023-04-03T01:01:20;103167.75;;;4.32;69.25
76260;BME280;65076;52.362;6.588;2023-04-03T01:03:51;103163.16;;;4.24;69.58
76260;BME280;65076;52.362;6.588;2023-04-03T01:06:21;103171.34;;;4.32;69.41
76260;BME280;65076;52.362;6.588;2023-04-03T01:08:56;103166.31;;;4.55;69.24
76260;BME280;65076;52.362;6.588;2023-04-03T01:11:25;103166.00;;;4.35;69.35
76260;BME280;65076;52.362;6.588;2023-04-03T01:13:53;103166.25;;;4.52;69.19
76260;BME280;65076;52.362;6.588;2023-04-03T01:16:21;103173.38;;;4.48;69.18
76260;BME280;65076;52.362;6.588;2023-04-03T01:18:49;103170.41;;;4.29;70.14
76260;BME280;65076;52.362;6.588;2023-04-03T01:21:56;103175.84;;;4.36;70.07
76260;BME280;65076;52.362;6.588;2023-04-03T01:24:39;103168.66;;;4.32;70.48
76260;BME280;65076;52.362;6.588;2023-04-03T01:27:09;103170.63;;;4.44;69.41
76260;BME280;65076;52.362;6.588;2023-04-03T01:29:38;103175.72;;;4.27;70.15
76260;BME280;65076;52.362;6.588;2023-04-03T01:32:08;103179.75;;;3.98;70.80
76260;BME280;65076;52.362;6.588;2023-04-03T01:34:36;103188.41;;;4.39;69.57
76260;BME280;65076;52.362;6.588;2023-04-03T01:37:04;103188.75;;;4.03;71.28
76260;BME280;65076;52.362;6.588;2023-04-03T01:39:32;103182.63;;;4.11;70.93
76260;BME280;65076;52.362;6.588;2023-04-03T01:42:00;103185.09;;;3.99;71.15
76260;BME280;65076;52.362;6.588;2023-04-03T01:44:28;103182.97;;;4.33;70.84
76260;BME280;65076;52.362;6.588;2023-04-03T01:46:56;103191.56;;;4.12;71.18
76260;BME280;65076;52.362;6.588;2023-04-03T01:49:25;103195.22;;;4.17;70.65
76260;BME280;65076;52.362;6.588;2023-04-03T01:51:53;103191.78;;;4.25;69.95
76260;BME280;65076;52.362;6.588;2023-04-03T01:54:21;103194.47;;;4.27;70.78
76260;BME280;65076;52.362;6.588;2023-04-03T01:56:49;103188.19;;;4.25;70.35
76260;BME280;65076;52.362;6.588;2023-04-03T01:59:17;103195.25;;;4.20;70.39
76260;BME280;65076;52.362;6.588;2023-04-03T02:01:45;103187.97;;;4.11;70.39
76260;BME280;65076;52.362;6.588;2023-04-03T02:04:13;103197.84;;;4.12;71.25
76260;BME280;65076;52.362;6.588;2023-04-03T02:06:42;103192.72;;;4.28;71.04
76260;BME280;65076;52.362;6.588;2023-04-03T02:09:10;103204.81;;;4.03;70.64
76260;BME280;65076;52.362;6.588;2023-04-03T02:11:38;103205.19;;;4.27;71.13
76260;BME280;65076;52.362;6.588;2023-04-03T02:14:06;103201.03;;;3.90;71.43
76260;BME280;65076;52.362;6.588;2023-04-03T02:16:34;103207.59;;;4.10;71.19
76260;BME280;65076;52.362;6.588;2023-04-03T02:19:03;103214.44;;;3.92;71.69
76260;BME280;65076;52.362;6.588;2023-04-03T02:21:31;103208.53;;;4.14;70.44
76260;BME280;65076;52.362;6.588;2023-04-03T02:24:00;103210.72;;;3.82;71.38
76260;BME280;65076;52.362;6.588;2023-04-03T02:26:28;103218.75;;;3.83;71.08
76260;BME280;65076;52.362;6.588;2023-04-03T02:28:56;103211.38;;;3.70;71.60
76260;BME280;65076;52.362;6.588;2023-04-03T02:31:24;103214.38;;;3.87;71.52
76260;BME280;65076;52.362;6.588;2023-04-03T02:33:52;103210.88;;;3.91;71.18
76260;BME280;65076;52.362;6.588;2023-04-03T02:36:20;103216.06;;;3.82;71.15
76260;BME280;65076;52.362;6.588;2023-04-03T02:38:47;103215.75;;;3.67;71.86
76260;BME280;65076;52.362;6.588;2023-04-03T02:41:17;103223.13;;;3.78;71.27
76260;BME280;65076;52.362;6.588;2023-04-03T02:43:45;103223.72;;;3.62;71.90
76260;BME280;65076;52.362;6.588;2023-04-03T02:46:12;103216.72;;;3.69;72.50
76260;BME280;65076;52.362;6.588;2023-04-03T02:48:42;103221.97;;;3.64;71.84
76260;BME280;65076;52.362;6.588;2023-04-03T02:51:10;103214.09;;;3.73;71.27
76260;BME280;65076;52.362;6.588;2023-04-03T02:53:38;103217.56;;;3.66;71.39
76260;BME280;65076;52.362;6.588;2023-04-03T02:56:06;103223.34;;;3.42;72.16
76260;BME280;65076;52.362;6.588;2023-04-03T02:58:35;103221.38;;;3.32;72.36
76260;BME280;65076;52.362;6.588;2023-04-03T03:01:03;103218.72;;;3.35;73.01
76260;BME280;65076;52.362;6.588;2023-04-03T03:03:31;103219.72;;;3.40;72.76
76260;BME280;65076;52.362;6.588;2023-04-03T03:06:03;103223.09;;;3.30;73.01
76260;BME280;65076;52.362;6.588;2023-04-03T03:08:31;103227.56;;;3.31;73.59
76260;BME280;65076;52.362;6.588;2023-04-03T03:11:00;103228.34;;;3.26;72.97
76260;BME280;65076;52.362;6.588;2023-04-03T03:13:28;103231.91;;;3.25;73.08
76260;BME280;65076;52.362;6.588;2023-04-03T03:15:58;103225.63;;;3.23;73.83
76260;BME280;65076;52.362;6.588;2023-04-03T03:18:27;103228.88;;;3.07;73.78
76260;BME280;65076;52.362;6.588;2023-04-03T03:20:57;103232.50;;;3.10;73.63
76260;BME280;65076;52.362;6.588;2023-04-03T03:23:26;103233.69;;;2.82;75.19
76260;BME280;65076;52.362;6.588;2023-04-03T03:25:56;103239.91;;;2.83;75.35
76260;BME280;65076;52.362;6.588;2023-04-03T03:28:25;103233.13;;;2.97;74.94
76260;BME280;65076;52.362;6.588;2023-04-03T03:30:54;103234.50;;;2.80;74.66
76260;BME280;65076;52.362;6.588;2023-04-03T03:33:23;103223.72;;;2.75;75.04
76260;BME280;65076;52.362;6.588;2023-04-03T03:35:52;103225.53;;;2.76;74.90
76260;BME280;65076;52.362;6.588;2023-04-03T03:38:21;103228.25;;;2.79;74.07
76260;BME280;65076;52.362;6.588;2023-04-03T03:40:50;103224.78;;;2.82;73.78
76260;BME280;65076;52.362;6.588;2023-04-03T03:43:19;103233.31;;;3.06;73.29
76260;BME280;65076;52.362;6.588;2023-04-03T03:45:50;103239.91;;;2.81;73.94
76260;BME280;65076;52.362;6.588;2023-04-03T03:48:19;103233.13;;;2.97;72.99
76260;BME280;65076;52.362;6.588;2023-04-03T03:50:49;103244.34;;;2.81;73.74
76260;BME280;65076;52.362;6.588;2023-04-03T03:53:17;103239.41;;;3.01;73.60
76260;BME280;65076;52.362;6.588;2023-04-03T03:55:45;103240.16;;;2.93;72.62
76260;BME280;65076;52.362;6.588;2023-04-03T03:58:13;103237.53;;;2.95;72.17
76260;BME280;65076;52.362;6.588;2023-04-03T04:00:41;103246.16;;;2.82;73.58
76260;BME280;65076;52.362;6.588;2023-04-03T04:03:09;103239.81;;;2.77;73.09
76260;BME280;65076;52.362;6.588;2023-04-03T04:05:37;103247.06;;;2.84;73.55
76260;BME280;65076;52.362;6.588;2023-04-03T04:08:07;103247.63;;;2.69;73.72
76260;BME280;65076;52.362;6.588;2023-04-03T04:10:35;103239.56;;;3.07;72.12
76260;BME280;65076;52.362;6.588;2023-04-03T04:13:05;103240.66;;;3.16;71.68
76260;BME280;65076;52.362;6.588;2023-04-03T04:15:33;103250.69;;;2.86;72.68
76260;BME280;65076;52.362;6.588;2023-04-03T04:18:01;103256.75;;;2.79;73.85
76260;BME280;65076;52.362;6.588;2023-04-03T04:20:30;103262.72;;;2.67;73.40
76260;BME280;65076;52.362;6.588;2023-04-03T04:22:57;103256.38;;;2.62;73.89
76260;BME280;65076;52.362;6.588;2023-04-03T04:25:27;103263.53;;;2.62;74.39
76260;BME280;65076;52.362;6.588;2023-04-03T04:27:55;103267.72;;;2.52;73.42
76260;BME280;65076;52.362;6.588;2023-04-03T04:30:22;103266.81;;;2.51;74.27
76260;BME280;65076;52.362;6.588;2023-04-03T04:32:50;103270.66;;;2.27;74.25
76260;BME280;65076;52.362;6.588;2023-04-03T04:35:18;103272.25;;;2.54;73.81
76260;BME280;65076;52.362;6.588;2023-04-03T04:37:46;103274.22;;;2.62;73.11
76260;BME280;65076;52.362;6.588;2023-04-03T04:40:14;103277.88;;;2.31;74.61
76260;BME280;65076;52.362;6.588;2023-04-03T04:42:43;103280.41;;;2.62;73.17
76260;BME280;65076;52.362;6.588;2023-04-03T04:45:11;103295.00;;;2.39;73.75
76260;BME280;65076;52.362;6.588;2023-04-03T04:47:39;103288.03;;;2.44;73.93
76260;BME280;65076;52.362;6.588;2023-04-03T04:50:08;103294.69;;;2.27;74.62
76260;BME280;65076;52.362;6.588;2023-04-03T04:52:37;103299.34;;;2.34;74.70
76260;BME280;65076;52.362;6.588;2023-04-03T04:55:06;103302.25;;;2.08;75.02
76260;BME280;65076;52.362;6.588;2023-04-03T04:57:34;103292.88;;;2.26;74.82
76260;BME280;65076;52.362;6.588;2023-04-03T05:00:06;103310.91;;;2.00;75.71
76260;BME280;65076;52.362;6.588;2023-04-03T05:02:34;103292.75;;;2.20;74.53
76260;BME280;65076;52.362;6.588;2023-04-03T05:05:03;103295.56;;;2.26;75.04
76260;BME280;65076;52.362;6.588;2023-04-03T05:07:31;103298.59;;;2.05;75.03
76260;BME280;65076;52.362;6.588;2023-04-03T05:09:59;103293.63;;;2.19;75.14
76260;BME280;65076;52.362;6.588;2023-04-03T05:12:27;103305.50;;;1.97;75.41
76260;BME280;65076;52.362;6.588;2023-04-03T05:14:55;103301.47;;;2.12;74.70
76260;BME280;65076;52.362;6.588;2023-04-03T05:17:24;103312.81;;;2.04;75.07
76260;BME280;65076;52.362;6.588;2023-04-03T05:19:52;103311.34;;;1.84;75.39
76260;BME280;65076;52.362;6.588;2023-04-03T05:22:20;103311.13;;;1.75;75.76
76260;BME280;65076;52.362;6.588;2023-04-03T05:24:48;103319.28;;;1.81;76.33
76260;BME280;65076;52.362;6.588;2023-04-03T05:27:16;103312.38;;;1.87;75.34
76260;BME280;65076;52.362;6.588;2023-04-03T05:29:44;103316.84;;;1.88;75.83
76260;BME280;65076;52.362;6.588;2023-04-03T05:32:12;103315.34;;;1.99;74.49
76260;BME280;65076;52.362;6.588;2023-04-03T05:34:41;103318.38;;;1.80;75.90
76260;BME280;65076;52.362;6.588;2023-04-03T05:37:09;103326.97;;;2.01;75.55
76260;BME280;65076;52.362;6.588;2023-04-03T05:39:37;103331.28;;;1.96;75.67
76260;BME280;65076;52.362;6.588;2023-04-03T05:42:07;103325.72;;;1.89;75.05
76260;BME280;65076;52.362;6.588;2023-04-03T05:44:35;103329.38;;;2.25;73.66
76260;BME280;65076;52.362;6.588;2023-04-03T05:47:04;103333.28;;;2.38;73.35
76260;BME280;65076;52.362;6.588;2023-04-03T05:49:32;103330.06;;;2.51;72.73
76260;BME280;65076;52.362;6.588;2023-04-03T05:52:01;103331.06;;;2.93;70.51
76260;BME280;65076;52.362;6.588;2023-04-03T05:54:30;103329.34;;;2.95;70.90
76260;BME280;65076;52.362;6.588;2023-04-03T05:56:58;103328.78;;;3.52;68.96
76260;BME280;65076;52.362;6.588;2023-04-03T05:59:26;103334.84;;;4.34;65.66
76260;BME280;65076;52.362;6.588;2023-04-03T06:01:54;103333.97;;;4.36;64.44
76260;BME280;65076;52.362;6.588;2023-04-03T06:04:22;103329.13;;;4.66;64.02
76260;BME280;65076;52.362;6.588;2023-04-03T06:06:52;103326.63;;;5.39;61.90
76260;BME280;65076;52.362;6.588;2023-04-03T06:09:25;103329.84;;;5.12;60.88
76260;BME280;65076;52.362;6.588;2023-04-03T06:11:55;103335.44;;;5.30;60.79
76260;BME280;65076;52.362;6.588;2023-04-03T06:14:25;103332.06;;;5.43;59.98
76260;BME280;65076;52.362;6.588;2023-04-03T06:16:53;103332.88;;;5.38;59.41
76260;BME280;65076;52.362;6.588;2023-04-03T06:19:22;103338.09;;;5.29;59.15
76260;BME280;65076;52.362;6.588;2023-04-03T06:21:51;103345.09;;;5.16;60.87
76260;BME280;65076;52.362;6.588;2023-04-03T06:24:19;103337.28;;;4.74;60.63
76260;BME280;65076;52.362;6.588;2023-04-03T06:26:49;103336.78;;;4.99;60.53
76260;BME280;65076;52.362;6.588;2023-04-03T06:29:19;103339.84;;;5.25;59.49
76260;BME280;65076;52.362;6.588;2023-04-03T06:31:48;103338.53;;;5.62;58.24
76260;BME280;65076;52.362;6.588;2023-04-03T06:34:17;103350.78;;;5.39;59.18
76260;BME280;65076;52.362;6.588;2023-04-03T06:36:45;103344.19;;;5.85;56.86
76260;BME280;65076;52.362;6.588;2023-04-03T06:39:15;103342.94;;;5.57;57.86
76260;BME280;65076;52.362;6.588;2023-04-03T06:41:45;103342.94;;;6.34;56.87
76260;BME280;65076;52.362;6.588;2023-04-03T06:44:15;103344.50;;;7.22;53.98
76260;BME280;65076;52.362;6.588;2023-04-03T06:46:43;103345.81;;;6.54;54.34
76260;BME280;65076;52.362;6.588;2023-04-03T06:49:13;103348.41;;;6.43;54.53
76260;BME280;65076;52.362;6.588;2023-04-03T06:51:41;103355.94;;;5.93;56.26
76260;BME280;65076;52.362;6.588;2023-04-03T06:54:09;103359.88;;;6.22;56.24
76260;BME280;65076;52.362;6.588;2023-04-03T06:56:37;103365.25;;;6.25;53.85
76260;BME280;65076;52.362;6.588;2023-04-03T06:59:05;103361.72;;;6.31;54.07
76260;BME280;65076;52.362;6.588;2023-04-03T07:01:36;103363.50;;;7.47;51.39
76260;BME280;65076;52.362;6.588;2023-04-03T07:04:04;103363.69;;;7.89;50.61
76260;BME280;65076;52.362;6.588;2023-04-03T07:06:32;103365.41;;;7.68;49.25
76260;BME280;65076;52.362;6.588;2023-04-03T07:09:00;103369.00;;;7.76;49.38
76260;BME280;65076;52.362;6.588;2023-04-03T07:11:29;103371.81;;;8.04;47.19
76260;BME280;65076;52.362;6.588;2023-04-03T07:13:57;103389.19;;;6.96;51.35
76260;BME280;65076;52.362;6.588;2023-04-03T07:16:25;103371.00;;;9.01;48.13
76260;BME280;65076;52.362;6.588;2023-04-03T07:18:54;103376.44;;;8.80;45.85
76260;BME280;65076;52.362;6.588;2023-04-03T07:21:22;103374.63;;;8.67;46.17
76260;BME280;65076;52.362;6.588;2023-04-03T07:23:51;103380.94;;;8.91;46.00
76260;BME280;65076;52.362;6.588;2023-04-03T07:26:19;103381.84;;;8.78;45.61
76260;BME280;65076;52.362;6.588;2023-04-03T07:28:49;103372.69;;;9.63;44.69
76260;BME280;65076;52.362;6.588;2023-04-03T07:31:17;103377.81;;;10.20;42.99
76260;BME280;65076;52.362;6.588;2023-04-03T07:33:45;103381.75;;;9.41;42.21
76260;BME280;65076;52.362;6.588;2023-04-03T07:36:17;103388.06;;;9.38;42.77
76260;BME280;65076;52.362;6.588;2023-04-03T07:38:46;103387.91;;;9.81;42.61
76260;BME280;65076;52.362;6.588;2023-04-03T07:41:16;103381.81;;;8.45;44.79
76260;BME280;65076;52.362;6.588;2023-04-03T07:43:47;103378.72;;;10.26;41.92
76260;BME280;65076;52.362;6.588;2023-04-03T07:46:16;103380.50;;;10.22;39.55
76260;BME280;65076;52.362;6.588;2023-04-03T07:48:45;103379.53;;;10.32;39.38
76260;BME280;65076;52.362;6.588;2023-04-03T07:51:14;103392.69;;;10.84;39.27
76260;BME280;65076;52.362;6.588;2023-04-03T07:53:42;103392.31;;;10.03;39.45
76260;BME280;65076;52.362;6.588;2023-04-03T07:56:10;103383.78;;;10.73;40.26
76260;BME280;65076;52.362;6.588;2023-04-03T07:58:38;103387.47;;;11.56;37.79
76260;BME280;65076;52.362;6.588;2023-04-03T08:01:06;103383.03;;;11.48;36.89
76260;BME280;65076;52.362;6.588;2023-04-03T08:03:34;103381.41;;;12.07;36.41
76260;BME280;65076;52.362;6.588;2023-04-03T08:06:05;103392.34;;;12.03;36.11
76260;BME280;65076;52.362;6.588;2023-04-03T08:08:43;103395.16;;;11.11;36.10
76260;BME280;65076;52.362;6.588;2023-04-03T08:11:12;103383.19;;;12.10;34.17
76260;BME280;65076;52.362;6.588;2023-04-03T08:13:40;103385.50;;;12.39;34.11
76260;BME280;65076;52.362;6.588;2023-04-03T08:16:11;103394.97;;;12.67;31.77
76260;BME280;65076;52.362;6.588;2023-04-03T08:18:40;103395.94;;;12.64;33.36
76260;BME280;65076;52.362;6.588;2023-04-03T08:21:08;103395.44;;;11.68;35.24
76260;BME280;65076;52.362;6.588;2023-04-03T08:23:37;103398.44;;;11.42;35.40
76260;BME280;65076;52.362;6.588;2023-04-03T08:26:09;103395.50;;;11.65;33.78
76260;BME280;65076;52.362;6.588;2023-04-03T08:28:38;103389.38;;;12.78;32.97
76260;BME280;65076;52.362;6.588;2023-04-03T08:31:09;103393.97;;;13.28;30.83
76260;BME280;65076;52.362;6.588;2023-04-03T08:33:39;103401.16;;;12.78;31.04
76260;BME280;65076;52.362;6.588;2023-04-03T08:36:16;103395.69;;;12.20;31.99
76260;BME280;65076;52.362;6.588;2023-04-03T08:38:47;103388.94;;;11.85;30.08
76260;BME280;65076;52.362;6.588;2023-04-03T08:41:21;103403.34;;;11.92;31.21
76260;BME280;65076;52.362;6.588;2023-04-03T08:44:12;103392.19;;;12.73;29.05
76260;BME280;65076;52.362;6.588;2023-04-03T08:46:57;103392.88;;;12.87;30.22
76260;BME280;65076;52.362;6.588;2023-04-03T08:49:33;103395.69;;;12.81;31.24
76260;BME280;65076;52.362;6.588;2023-04-03T08:52:09;103389.34;;;12.24;31.14
76260;BME280;65076;52.362;6.588;2023-04-03T08:54:49;103386.41;;;12.38;28.61
76260;BME280;65076;52.362;6.588;2023-04-03T08:57:27;103396.25;;;10.92;30.30
76260;BME280;65076;52.362;6.588;2023-04-03T09:00:01;103390.63;;;11.96;28.86
76260;BME280;65076;52.362;6.588;2023-04-03T09:02:40;103389.97;;;12.41;28.02
76260;BME280;65076;52.362;6.588;2023-04-03T09:05:16;103384.81;;;12.23;27.71
76260;BME280;65076;52.362;6.588;2023-04-03T09:07:48;103401.34;;;12.06;28.12
76260;BME280;65076;52.362;6.588;2023-04-03T09:10:27;103399.28;;;12.23;26.79
76260;BME280;65076;52.362;6.588;2023-04-03T09:13:05;103390.63;;;11.13;28.58
76260;BME280;65076;52.362;6.588;2023-04-03T09:15:37;103394.50;;;11.75;28.38
76260;BME280;65076;52.362;6.588;2023-04-03T09:18:13;103384.44;;;12.46;25.90
76260;BME280;65076;52.362;6.588;2023-04-03T09:20:55;103395.09;;;13.14;25.96
76260;BME280;65076;52.362;6.588;2023-04-03T09:23:32;103388.13;;;12.45;25.99
76260;BME280;65076;52.362;6.588;2023-04-03T09:26:13;103392.63;;;11.81;26.77
76260;BME280;65076;52.362;6.588;2023-04-03T09:28:47;103402.09;;;10.31;27.31
76260;BME280;65076;52.362;6.588;2023-04-03T09:31:20;103394.56;;;12.38;26.12
76260;BME280;65076;52.362;6.588;2023-04-03T09:33:54;103394.50;;;11.73;28.10
76260;BME280;65076;52.362;6.588;2023-04-03T09:36:41;103380.88;;;11.78;27.95
76260;BME280;65076;52.362;6.588;2023-04-03T09:39:13;103380.03;;;11.76;26.49
76260;BME280;65076;52.362;6.588;2023-04-03T09:41:56;103391.88;;;11.66;26.58
76260;BME280;65076;52.362;6.588;2023-04-03T09:44:35;103378.34;;;12.30;24.86
76260;BME280;65076;52.362;6.588;2023-04-03T09:47:18;103385.00;;;12.70;24.31
76260;BME280;65076;52.362;6.588;2023-04-03T09:49:51;103382.94;;;12.26;24.88
76260;BME280;65076;52.362;6.588;2023-04-03T09:52:46;103372.88;;;12.35;26.34
76260;BME280;65076;52.362;6.588;2023-04-03T09:55:17;103367.88;;;12.65;25.78
76260;BME280;65076;52.362;6.588;2023-04-03T09:57:49;103364.25;;;13.63;25.27
76260;BME280;65076;52.362;6.588;2023-04-03T10:00:25;103364.88;;;14.57;22.76
76260;BME280;65076;52.362;6.588;2023-04-03T10:02:58;103359.47;;;13.76;24.37
76260;BME280;65076;52.362;6.588;2023-04-03T10:05:34;103349.44;;;14.56;23.95
76260;BME280;65076;52.362;6.588;2023-04-03T10:08:09;103359.97;;;13.93;25.34
76260;BME280;65076;52.362;6.588;2023-04-03T10:10:39;103369.13;;;12.42;25.86
76260;BME280;65076;52.362;6.588;2023-04-03T10:13:12;103350.66;;;13.63;24.32
76260;BME280;65076;52.362;6.588;2023-04-03T10:15:51;103352.03;;;14.62;24.00
76260;BME280;65076;52.362;6.588;2023-04-03T10:18:30;103349.19;;;13.45;25.52
76260;BME280;65076;52.362;6.588;2023-04-03T10:21:09;103352.72;;;14.33;24.01
76260;BME280;65076;52.362;6.588;2023-04-03T10:23:58;103337.44;;;14.65;24.38
76260;BME280;65076;52.362;6.588;2023-04-03T10:26:39;103346.00;;;14.10;24.60
76260;BME280;65076;52.362;6.588;2023-04-03T10:29:24;103341.47;;;12.73;25.73
76260;BME280;65076;52.362;6.588;2023-04-03T10:32:19;103339.91;;;13.57;24.42
76260;BME280;65076;52.362;6.588;2023-04-03T10:35:03;103349.34;;;14.22;24.65
76260;BME280;65076;52.362;6.588;2023-04-03T10:37:50;103326.91;;;14.11;24.96
76260;BME280;65076;52.362;6.588;2023-04-03T10:40:31;103318.63;;;14.16;24.70
76260;BME280;65076;52.362;6.588;2023-04-03T10:43:15;103320.97;;;14.69;24.63
76260;BME280;65076;52.362;6.588;2023-04-03T10:45:57;103323.13;;;15.23;24.34
76260;BME280;65076;52.362;6.588;2023-04-03T10:48:41;103339.00;;;13.56;25.80
76260;BME280;65076;52.362;6.588;2023-04-03T10:51:25;103325.84;;;13.77;25.77
76260;BME280;65076;52.362;6.588;2023-04-03T10:54:00;103327.84;;;12.20;26.92
76260;BME280;65076;52.362;6.588;2023-04-03T10:56:39;103324.78;;;13.85;25.94
76260;BME280;65076;52.362;6.588;2023-04-03T10:59:17;103316.72;;;14.19;25.05
76260;BME280;65076;52.362;6.588;2023-04-03T11:01:53;103311.31;;;14.56;24.49
76260;BME280;65076;52.362;6.588;2023-04-03T11:04:27;103314.91;;;15.24;24.17
76260;BME280;65076;52.362;6.588;2023-04-03T11:07:04;103322.63;;;13.99;24.56
76260;BME280;65076;52.362;6.588;2023-04-03T11:09:40;103324.78;;;12.93;26.26
76260;BME280;65076;52.362;6.588;2023-04-03T11:12:15;103295.38;;;13.61;25.94
76260;BME280;65076;52.362;6.588;2023-04-03T11:14:50;103308.44;;;14.24;25.54
76260;BME280;65076;52.362;6.588;2023-04-03T11:17:27;103315.00;;;12.83;27.28
76260;BME280;65076;52.362;6.588;2023-04-03T11:20:06;103304.84;;;14.60;25.19
76260;BME280;65076;52.362;6.588;2023-04-03T11:22:43;103299.06;;;14.72;25.86
76260;BME280;65076;52.362;6.588;2023-04-03T11:25:19;103300.78;;;14.76;24.74
76260;BME280;65076;52.362;6.588;2023-04-03T11:27:54;103296.28;;;14.40;24.31
76260;BME280;65076;52.362;6.588;2023-04-03T11:30:28;103303.44;;;13.23;26.64
76260;BME280;65076;52.362;6.588;2023-04-03T11:33:28;103291.03;;;14.68;25.09
76260;BME280;65076;52.362;6.588;2023-04-03T11:36:08;103283.41;;;15.13;24.15
76260;BME280;65076;52.362;6.588;2023-04-03T11:38:58;103276.25;;;14.43;24.48
76260;BME280;65076;52.362;6.588;2023-04-03T11:41:31;103274.13;;;14.18;25.47
76260;BME280;65076;52.362;6.588;2023-04-03T11:44:02;103268.44;;;14.27;26.68
76260;BME280;65076;52.362;6.588;2023-04-03T11:46:52;103261.19;;;14.63;25.76
76260;BME280;65076;52.362;6.588;2023-04-03T11:49:58;103263.25;;;15.49;24.27
76260;BME280;65076;52.362;6.588;2023-04-03T11:52:59;103250.84;;;15.98;25.04
76260;BME280;65076;52.362;6.588;2023-04-03T11:55:52;103267.25;;;16.52;23.26
76260;BME280;65076;52.362;6.588;2023-04-03T11:58:23;103250.53;;;16.63;23.93
76260;BME280;65076;52.362;6.588;2023-04-03T12:01:04;103254.66;;;16.74;23.00
76260;BME280;65076;52.362;6.588;2023-04-03T12:10:18;103263.59;;;13.20;26.98
76260;BME280;65076;52.362;6.588;2023-04-03T12:12:59;103282.28;;;13.37;26.71
76260;BME280;65076;52.362;6.588;2023-04-03T12:15:49;103267.03;;;13.71;26.76
76260;BME280;65076;52.362;6.588;2023-04-03T12:18:57;103273.13;;;13.41;27.63
76260;BME280;65076;52.362;6.588;2023-04-03T12:22:09;103253.59;;;13.64;26.99
76260;BME280;65076;52.362;6.588;2023-04-03T12:24:44;103263.97;;;13.00;27.78
76260;BME280;65076;52.362;6.588;2023-04-03T12:27:27;103246.94;;;13.77;27.74
76260;BME280;65076;52.362;6.588;2023-04-03T12:30:14;103252.09;;;13.90;26.92
76260;BME280;65076;52.362;6.588;2023-04-03T12:33:01;103245.66;;;13.13;27.72
76260;BME280;65076;52.362;6.588;2023-04-03T12:35:47;103238.75;;;13.38;28.02
76260;BME280;65076;52.362;6.588;2023-04-03T12:38:40;103250.88;;;13.22;28.10
76260;BME280;65076;52.362;6.588;2023-04-03T12:41:23;103228.84;;;12.90;28.24
76260;BME280;65076;52.362;6.588;2023-04-03T12:44:17;103231.34;;;13.00;28.75
76260;BME280;65076;52.362;6.588;2023-04-03T12:49:54;103231.72;;;14.07;28.25
76260;BME280;65076;52.362;6.588;2023-04-03T12:52:32;103219.66;;;14.18;27.16
76260;BME280;65076;52.362;6.588;2023-04-03T12:55:14;103227.75;;;13.83;27.64
76260;BME280;65076;52.362;6.588;2023-04-03T12:57:44;103216.59;;;14.30;27.57
76260;BME280;65076;52.362;6.588;2023-04-03T13:00:22;103206.34;;;14.75;26.22
76260;BME280;65076;52.362;6.588;2023-04-03T13:03:00;103204.66;;;13.24;29.08
76260;BME280;65076;52.362;6.588;2023-04-03T13:05:32;103211.69;;;13.72;29.51
76260;BME280;65076;52.362;6.588;2023-04-03T13:08:05;103203.84;;;14.99;28.25
76260;BME280;65076;52.362;6.588;2023-04-03T13:10:50;103191.31;;;14.92;25.23
76260;BME280;65076;52.362;6.588;2023-04-03T13:13:21;103205.97;;;14.20;26.86
76260;BME280;65076;52.362;6.588;2023-04-03T13:15:53;103193.06;;;15.25;26.26
76260;BME280;65076;52.362;6.588;2023-04-03T13:18:24;103178.38;;;15.00;26.18
76260;BME280;65076;52.362;6.588;2023-04-03T13:21:01;103187.88;;;14.54;27.85
76260;BME280;65076;52.362;6.588;2023-04-03T13:23:36;103188.41;;;15.28;27.09
76260;BME280;65076;52.362;6.588;2023-04-03T13:26:08;103180.97;;;15.34;26.55
76260;BME280;65076;52.362;6.588;2023-04-03T13:28:39;103174.91;;;15.24;26.81
76260;BME280;65076;52.362;6.588;2023-04-03T13:31:18;103178.53;;;14.63;27.88
76260;BME280;65076;52.362;6.588;2023-04-03T13:33:56;103181.53;;;14.52;28.52